sensor_id;sensor_type;location;lat;lon;timestamp;P1;durP1;ratioP1;P2;durP2;ratioP2
70832;SDS011;58452;59.418;17.962;2023-04-07T00:00:56;2.15;;;1.95;;
70832;SDS011;58452;59.418;17.962;2023-04-07T00:03:22;1.95;;;1.40;;
70832;SDS011;58452;59.418;17.962;2023-04-07T00:05:48;1.67;;;1.50;;
70832;SDS011;58452;59.418;17.962;2023-04-07T00:08:13;1.80;;;1.70;;
70832;SDS011;58452;59.418;17.962;2023-04-07T00:10:39;3.47;;;2.03;;
70832;SDS011;58452;59.418;17.962;2023-04-07T00:13:05;2.15;;;1.65;;
70832;SDS011;58452;59.418;17.962;2023-04-07T00:15:30;2.33;;;2.13;;
70832;SDS011;58452;59.418;17.962;2023-04-07T00:17:56;2.63;;;2.35;;
70832;SDS011;58452;59.418;17.962;2023-04-07T00:20:21;2.83;;;2.38;;
70832;SDS011;58452;59.418;17.962;2023-04-07T00:22:47;3.20;;;2.80;;
70832;SDS011;58452;59.418;17.962;2023-04-07T00:25:12;5.30;;;4.20;;
70832;SDS011;58452;59.418;17.962;2023-04-07T00:27:38;3.90;;;3.15;;
70832;SDS011;58452;59.418;17.962;2023-04-07T00:30:04;3.67;;;3.10;;
70832;SDS011;58452;59.418;17.962;2023-04-07T00:32:30;2.72;;;2.42;;
70832;SDS011;58452;59.418;17.962;2023-04-07T00:34:55;3.40;;;2.75;;
70832;SDS011;58452;59.418;17.962;2023-04-07T00:37:21;2.80;;;2.25;;
70832;SDS011;58452;59.418;17.962;2023-04-07T00:39:46;2.72;;;1.80;;
70832;SDS011;58452;59.418;17.962;2023-04-07T00:42:12;2.08;;;1.88;;
70832;SDS011;58452;59.418;17.962;2023-04-07T00:44:37;2.95;;;2.33;;
70832;SDS011;58452;59.418;17.962;2023-04-07T00:47:03;1.92;;;1.75;;
70832;SDS011;58452;59.418;17.962;2023-04-07T00:49:28;2.40;;;2.00;;
70832;SDS011;58452;59.418;17.962;2023-04-07T00:51:56;1.90;;;1.65;;
70832;SDS011;58452;59.418;17.962;2023-04-07T00:54:22;1.73;;;1.38;;
70832;SDS011;58452;59.418;17.962;2023-04-07T00:56:48;1.83;;;1.52;;
70832;SDS011;58452;59.418;17.962;2023-04-07T00:59:14;1.70;;;1.60;;
70832;SDS011;58452;59.418;17.962;2023-04-07T01:01:44;2.03;;;1.33;;
70832;SDS011;58452;59.418;17.962;2023-04-07T01:07:07;1.77;;;1.60;;
70832;SDS011;58452;59.418;17.962;2023-04-07T01:09:36;1.60;;;1.50;;
70832;SDS011;58452;59.418;17.962;2023-04-07T01:15:03;1.70;;;1.60;;
70832;SDS011;58452;59.418;17.962;2023-04-07T01:17:33;1.67;;;1.42;;
70832;SDS011;58452;59.418;17.962;2023-04-07T01:20:03;1.58;;;1.48;;
70832;SDS011;58452;59.418;17.962;2023-04-07T01:22:42;2.15;;;1.90;;
70832;SDS011;58452;59.418;17.962;2023-04-07T01:31:02;2.05;;;1.70;;
70832;SDS011;58452;59.418;17.962;2023-04-07T01:33:32;1.88;;;1.67;;
70832;SDS011;58452;59.418;17.962;2023-04-07T01:35:59;2.10;;;1.67;;
70832;SDS011;58452;59.418;17.962;2023-04-07T01:38:26;1.92;;;1.60;;
70832;SDS011;58452;59.418;17.962;2023-04-07T01:40:53;2.20;;;1.77;;
70832;SDS011;58452;59.418;17.962;2023-04-07T01:43:20;4.45;;;1.45;;
70832;SDS011;58452;59.418;17.962;2023-04-07T01:45:47;2.50;;;2.10;;
70832;SDS011;58452;59.418;17.962;2023-04-07T01:48:13;2.03;;;1.80;;
70832;SDS011;58452;59.418;17.962;2023-04-07T01:50:39;2.10;;;1.90;;
70832;SDS011;58452;59.418;17.962;2023-04-07T01:53:05;2.22;;;1.80;;
70832;SDS011;58452;59.418;17.962;2023-04-07T01:55:32;3.38;;;2.47;;
70832;SDS011;58452;59.418;17.962;2023-04-07T01:58:02;4.25;;;1.90;;
70832;SDS011;58452;59.418;17.962;2023-04-07T02:00:28;2.20;;;1.70;;
70832;SDS011;58452;59.418;17.962;2023-04-07T02:02:56;2.33;;;2.13;;
70832;SDS011;58452;59.418;17.962;2023-04-07T02:05:28;2.17;;;1.98;;
70832;SDS011;58452;59.418;17.962;2023-04-07T02:07:59;2.67;;;2.03;;
70832;SDS011;58452;59.418;17.962;2023-04-07T02:10:28;2.05;;;1.75;;
70832;SDS011;58452;59.418;17.962;2023-04-07T02:12:54;3.05;;;2.25;;
70832;SDS011;58452;59.418;17.962;2023-04-07T02:15:22;2.10;;;1.90;;
70832;SDS011;58452;59.418;17.962;2023-04-07T02:17:50;2.15;;;1.95;;
70832;SDS011;58452;59.418;17.962;2023-04-07T02:20:17;2.90;;;2.30;;
70832;SDS011;58452;59.418;17.962;2023-04-07T02:22:44;2.75;;;2.00;;
70832;SDS011;58452;59.418;17.962;2023-04-07T02:25:20;2.15;;;1.90;;
70832;SDS011;58452;59.418;17.962;2023-04-07T02:27:48;3.13;;;2.67;;
70832;SDS011;58452;59.418;17.962;2023-04-07T02:30:14;2.58;;;2.22;;
70832;SDS011;58452;59.418;17.962;2023-04-07T02:32:40;3.13;;;2.60;;
70832;SDS011;58452;59.418;17.962;2023-04-07T02:35:06;3.47;;;2.78;;
70832;SDS011;58452;59.418;17.962;2023-04-07T02:37:31;3.03;;;2.30;;
70832;SDS011;58452;59.418;17.962;2023-04-07T02:39:57;3.40;;;2.42;;
70832;SDS011;58452;59.418;17.962;2023-04-07T02:42:22;4.00;;;2.33;;
70832;SDS011;58452;59.418;17.962;2023-04-07T02:44:48;2.83;;;2.20;;
70832;SDS011;58452;59.418;17.962;2023-04-07T02:47:14;2.75;;;2.38;;
70832;SDS011;58452;59.418;17.962;2023-04-07T02:49:40;2.13;;;1.95;;
70832;SDS011;58452;59.418;17.962;2023-04-07T02:52:05;3.33;;;2.20;;
70832;SDS011;58452;59.418;17.962;2023-04-07T02:54:31;2.67;;;2.20;;
70832;SDS011;58452;59.418;17.962;2023-04-07T02:56:56;3.17;;;2.67;;
70832;SDS011;58452;59.418;17.962;2023-04-07T02:59:22;3.00;;;2.70;;
70832;SDS011;58452;59.418;17.962;2023-04-07T03:01:47;3.65;;;2.70;;
70832;SDS011;58452;59.418;17.962;2023-04-07T03:04:13;4.03;;;3.20;;
70832;SDS011;58452;59.418;17.962;2023-04-07T03:06:38;3.70;;;2.75;;
70832;SDS011;58452;59.418;17.962;2023-04-07T03:09:04;3.90;;;2.67;;
70832;SDS011;58452;59.418;17.962;2023-04-07T03:11:29;3.92;;;2.85;;
70832;SDS011;58452;59.418;17.962;2023-04-07T03:13:55;5.97;;;3.92;;
70832;SDS011;58452;59.418;17.962;2023-04-07T03:16:20;4.07;;;3.03;;
70832;SDS011;58452;59.418;17.962;2023-04-07T03:18:46;3.75;;;3.03;;
70832;SDS011;58452;59.418;17.962;2023-04-07T03:21:11;5.47;;;3.80;;
70832;SDS011;58452;59.418;17.962;2023-04-07T03:23:37;4.07;;;2.88;;
70832;SDS011;58452;59.418;17.962;2023-04-07T03:26:02;4.65;;;3.15;;
70832;SDS011;58452;59.418;17.962;2023-04-07T03:28:28;4.85;;;3.70;;
70832;SDS011;58452;59.418;17.962;2023-04-07T03:30:53;5.82;;;4.43;;
70832;SDS011;58452;59.418;17.962;2023-04-07T03:33:19;5.80;;;3.75;;
70832;SDS011;58452;59.418;17.962;2023-04-07T03:35:45;4.95;;;3.63;;
70832;SDS011;58452;59.418;17.962;2023-04-07T03:38:10;7.88;;;5.03;;
70832;SDS011;58452;59.418;17.962;2023-04-07T03:40:36;6.32;;;4.50;;
70832;SDS011;58452;59.418;17.962;2023-04-07T03:43:01;9.43;;;4.80;;
70832;SDS011;58452;59.418;17.962;2023-04-07T03:45:27;6.75;;;4.63;;
70832;SDS011;58452;59.418;17.962;2023-04-07T03:47:52;6.55;;;4.63;;
70832;SDS011;58452;59.418;17.962;2023-04-07T03:50:18;7.78;;;4.53;;
70832;SDS011;58452;59.418;17.962;2023-04-07T03:52:44;10.43;;;5.25;;
70832;SDS011;58452;59.418;17.962;2023-04-07T03:55:09;6.75;;;4.75;;
70832;SDS011;58452;59.418;17.962;2023-04-07T03:57:35;9.50;;;5.60;;
70832;SDS011;58452;59.418;17.962;2023-04-07T04:00:00;7.85;;;5.18;;
70832;SDS011;58452;59.418;17.962;2023-04-07T04:02:26;8.05;;;5.03;;
70832;SDS011;58452;59.418;17.962;2023-04-07T04:04:52;7.75;;;5.13;;
70832;SDS011;58452;59.418;17.962;2023-04-07T04:07:17;9.25;;;5.45;;
70832;SDS011;58452;59.418;17.962;2023-04-07T04:09:43;8.05;;;5.25;;
70832;SDS011;58452;59.418;17.962;2023-04-07T04:12:08;7.68;;;5.38;;
70832;SDS011;58452;59.418;17.962;2023-04-07T04:14:33;8.25;;;5.38;;
70832;SDS011;58452;59.418;17.962;2023-04-07T04:16:59;8.57;;;5.78;;
70832;SDS011;58452;59.418;17.962;2023-04-07T04:19:25;9.77;;;5.80;;
70832;SDS011;58452;59.418;17.962;2023-04-07T04:21:50;8.93;;;5.43;;
70832;SDS011;58452;59.418;17.962;2023-04-07T04:24:16;7.60;;;4.72;;
70832;SDS011;58452;59.418;17.962;2023-04-07T04:26:41;7.88;;;5.15;;
70832;SDS011;58452;59.418;17.962;2023-04-07T04:29:06;7.57;;;5.50;;
70832;SDS011;58452;59.418;17.962;2023-04-07T04:31:32;6.35;;;4.57;;
70832;SDS011;58452;59.418;17.962;2023-04-07T04:33:57;8.10;;;5.55;;
70832;SDS011;58452;59.418;17.962;2023-04-07T04:36:23;7.88;;;5.07;;
70832;SDS011;58452;59.418;17.962;2023-04-07T04:38:48;8.35;;;5.28;;
70832;SDS011;58452;59.418;17.962;2023-04-07T04:41:14;8.05;;;5.65;;
70832;SDS011;58452;59.418;17.962;2023-04-07T04:43:39;7.22;;;5.45;;
70832;SDS011;58452;59.418;17.962;2023-04-07T04:46:05;7.57;;;5.35;;
70832;SDS011;58452;59.418;17.962;2023-04-07T04:48:30;8.35;;;5.65;;
70832;SDS011;58452;59.418;17.962;2023-04-07T04:50:56;7.45;;;5.65;;
70832;SDS011;58452;59.418;17.962;2023-04-07T04:53:21;8.07;;;5.03;;
70832;SDS011;58452;59.418;17.962;2023-04-07T04:55:47;9.93;;;6.32;;
70832;SDS011;58452;59.418;17.962;2023-04-07T04:58:16;8.20;;;4.47;;
70832;SDS011;58452;59.418;17.962;2023-04-07T05:00:44;7.30;;;4.63;;
70832;SDS011;58452;59.418;17.962;2023-04-07T05:03:10;5.63;;;4.45;;
70832;SDS011;58452;59.418;17.962;2023-04-07T05:05:35;6.00;;;4.45;;
70832;SDS011;58452;59.418;17.962;2023-04-07T05:08:00;6.97;;;5.03;;
70832;SDS011;58452;59.418;17.962;2023-04-07T05:10:26;5.43;;;3.80;;
70832;SDS011;58452;59.418;17.962;2023-04-07T05:12:51;6.72;;;4.18;;
70832;SDS011;58452;59.418;17.962;2023-04-07T05:15:16;6.07;;;4.65;;
70832;SDS011;58452;59.418;17.962;2023-04-07T05:17:42;6.50;;;4.30;;
70832;SDS011;58452;59.418;17.962;2023-04-07T05:20:08;5.53;;;4.55;;
70832;SDS011;58452;59.418;17.962;2023-04-07T05:22:34;8.77;;;4.15;;
70832;SDS011;58452;59.418;17.962;2023-04-07T05:25:00;5.45;;;4.00;;
70832;SDS011;58452;59.418;17.962;2023-04-07T05:27:26;6.80;;;3.88;;
70832;SDS011;58452;59.418;17.962;2023-04-07T05:29:51;6.60;;;3.97;;
70832;SDS011;58452;59.418;17.962;2023-04-07T05:32:17;8.30;;;4.88;;
70832;SDS011;58452;59.418;17.962;2023-04-07T05:34:43;6.68;;;4.13;;
70832;SDS011;58452;59.418;17.962;2023-04-07T05:37:09;5.55;;;4.10;;
70832;SDS011;58452;59.418;17.962;2023-04-07T05:39:34;5.70;;;3.97;;
70832;SDS011;58452;59.418;17.962;2023-04-07T05:42:00;7.80;;;3.65;;
70832;SDS011;58452;59.418;17.962;2023-04-07T05:44:26;6.15;;;3.65;;
70832;SDS011;58452;59.418;17.962;2023-04-07T05:46:52;4.93;;;3.15;;
70832;SDS011;58452;59.418;17.962;2023-04-07T05:49:17;4.32;;;3.08;;
70832;SDS011;58452;59.418;17.962;2023-04-07T05:51:43;4.80;;;2.85;;
70832;SDS011;58452;59.418;17.962;2023-04-07T05:54:08;4.15;;;3.15;;
70832;SDS011;58452;59.418;17.962;2023-04-07T05:56:34;2.40;;;2.00;;
70832;SDS011;58452;59.418;17.962;2023-04-07T05:58:59;3.13;;;2.13;;
70832;SDS011;58452;59.418;17.962;2023-04-07T06:01:25;3.67;;;2.30;;
70832;SDS011;58452;59.418;17.962;2023-04-07T06:03:51;3.95;;;2.20;;
70832;SDS011;58452;59.418;17.962;2023-04-07T06:06:17;3.15;;;2.75;;
70832;SDS011;58452;59.418;17.962;2023-04-07T06:08:42;2.25;;;1.67;;
70832;SDS011;58452;59.418;17.962;2023-04-07T06:11:08;2.00;;;1.35;;
70832;SDS011;58452;59.418;17.962;2023-04-07T06:13:33;1.90;;;1.42;;
70832;SDS011;58452;59.418;17.962;2023-04-07T06:15:59;1.98;;;1.35;;
70832;SDS011;58452;59.418;17.962;2023-04-07T06:18:24;2.58;;;1.50;;
70832;SDS011;58452;59.418;17.962;2023-04-07T06:20:50;1.40;;;1.30;;
70832;SDS011;58452;59.418;17.962;2023-04-07T06:23:15;1.80;;;1.45;;
70832;SDS011;58452;59.418;17.962;2023-04-07T06:25:41;2.17;;;1.55;;
70832;SDS011;58452;59.418;17.962;2023-04-07T06:28:06;1.60;;;1.40;;
70832;SDS011;58452;59.418;17.962;2023-04-07T06:30:31;1.55;;;1.42;;
70832;SDS011;58452;59.418;17.962;2023-04-07T06:32:58;0.93;;;0.93;;
70832;SDS011;58452;59.418;17.962;2023-04-07T06:35:24;1.83;;;1.40;;
70832;SDS011;58452;59.418;17.962;2023-04-07T06:37:50;1.88;;;1.20;;
70832;SDS011;58452;59.418;17.962;2023-04-07T06:40:16;1.13;;;1.05;;
70832;SDS011;58452;59.418;17.962;2023-04-07T06:42:41;1.10;;;1.00;;
70832;SDS011;58452;59.418;17.962;2023-04-07T06:45:07;1.60;;;1.08;;
70832;SDS011;58452;59.418;17.962;2023-04-07T06:47:33;1.45;;;1.23;;
70832;SDS011;58452;59.418;17.962;2023-04-07T06:49:59;1.33;;;1.23;;
70832;SDS011;58452;59.418;17.962;2023-04-07T06:52:24;1.30;;;1.15;;
70832;SDS011;58452;59.418;17.962;2023-04-07T06:54:50;1.27;;;1.17;;
70832;SDS011;58452;59.418;17.962;2023-04-07T06:57:15;1.40;;;1.17;;
70832;SDS011;58452;59.418;17.962;2023-04-07T06:59:41;1.50;;;1.38;;
70832;SDS011;58452;59.418;17.962;2023-04-07T07:02:06;1.95;;;1.33;;
70832;SDS011;58452;59.418;17.962;2023-04-07T07:04:35;1.77;;;1.38;;
70832;SDS011;58452;59.418;17.962;2023-04-07T07:07:00;2.20;;;1.35;;
70832;SDS011;58452;59.418;17.962;2023-04-07T07:09:27;1.73;;;1.30;;
70832;SDS011;58452;59.418;17.962;2023-04-07T07:11:52;1.75;;;1.10;;
70832;SDS011;58452;59.418;17.962;2023-04-07T07:14:18;1.15;;;1.05;;
70832;SDS011;58452;59.418;17.962;2023-04-07T07:16:43;3.13;;;1.92;;
70832;SDS011;58452;59.418;17.962;2023-04-07T07:19:09;2.20;;;1.77;;
70832;SDS011;58452;59.418;17.962;2023-04-07T07:21:35;1.67;;;1.23;;
70832;SDS011;58452;59.418;17.962;2023-04-07T07:24:00;1.40;;;1.20;;
70832;SDS011;58452;59.418;17.962;2023-04-07T07:26:26;1.67;;;1.30;;
70832;SDS011;58452;59.418;17.962;2023-04-07T07:28:51;2.25;;;1.60;;
70832;SDS011;58452;59.418;17.962;2023-04-07T07:31:17;2.75;;;1.60;;
70832;SDS011;58452;59.418;17.962;2023-04-07T07:33:43;1.50;;;1.05;;
70832;SDS011;58452;59.418;17.962;2023-04-07T07:36:10;0.88;;;0.75;;
70832;SDS011;58452;59.418;17.962;2023-04-07T07:38:36;1.55;;;1.45;;
70832;SDS011;58452;59.418;17.962;2023-04-07T07:41:01;1.20;;;1.05;;
70832;SDS011;58452;59.418;17.962;2023-04-07T07:43:27;1.92;;;1.20;;
70832;SDS011;58452;59.418;17.962;2023-04-07T07:45:53;1.10;;;0.80;;
70832;SDS011;58452;59.418;17.962;2023-04-07T07:48:19;0.93;;;0.82;;
70832;SDS011;58452;59.418;17.962;2023-04-07T07:50:44;1.13;;;1.00;;
70832;SDS011;58452;59.418;17.962;2023-04-07T07:53:11;1.20;;;0.90;;
70832;SDS011;58452;59.418;17.962;2023-04-07T07:55:36;0.93;;;0.80;;
70832;SDS011;58452;59.418;17.962;2023-04-07T07:58:02;1.17;;;0.85;;
70832;SDS011;58452;59.418;17.962;2023-04-07T08:00:27;1.13;;;1.02;;
70832;SDS011;58452;59.418;17.962;2023-04-07T08:02:53;1.80;;;1.33;;
70832;SDS011;58452;59.418;17.962;2023-04-07T08:05:18;1.15;;;1.00;;
70832;SDS011;58452;59.418;17.962;2023-04-07T08:07:44;1.33;;;0.80;;
70832;SDS011;58452;59.418;17.962;2023-04-07T08:10:10;1.27;;;0.98;;
70832;SDS011;58452;59.418;17.962;2023-04-07T08:12:36;1.52;;;1.13;;
70832;SDS011;58452;59.418;17.962;2023-04-07T08:15:02;1.35;;;0.98;;
70832;SDS011;58452;59.418;17.962;2023-04-07T08:17:27;1.05;;;0.80;;
70832;SDS011;58452;59.418;17.962;2023-04-07T08:19:53;1.45;;;0.95;;
70832;SDS011;58452;59.418;17.962;2023-04-07T08:22:18;1.20;;;1.10;;
70832;SDS011;58452;59.418;17.962;2023-04-07T08:24:45;1.85;;;0.80;;
70832;SDS011;58452;59.418;17.962;2023-04-07T08:27:11;1.48;;;0.90;;
70832;SDS011;58452;59.418;17.962;2023-04-07T08:29:37;1.33;;;0.98;;
70832;SDS011;58452;59.418;17.962;2023-04-07T08:32:02;1.40;;;1.10;;
70832;SDS011;58452;59.418;17.962;2023-04-07T08:34:28;1.17;;;0.85;;
70832;SDS011;58452;59.418;17.962;2023-04-07T08:36:53;0.73;;;0.70;;
70832;SDS011;58452;59.418;17.962;2023-04-07T08:39:19;0.95;;;0.77;;
70832;SDS011;58452;59.418;17.962;2023-04-07T08:41:44;1.00;;;0.80;;
70832;SDS011;58452;59.418;17.962;2023-04-07T08:44:12;1.30;;;1.10;;
70832;SDS011;58452;59.418;17.962;2023-04-07T08:46:39;1.13;;;0.82;;
70832;SDS011;58452;59.418;17.962;2023-04-07T08:49:09;0.90;;;0.90;;
70832;SDS011;58452;59.418;17.962;2023-04-07T08:51:39;0.90;;;0.82;;
70832;SDS011;58452;59.418;17.962;2023-04-07T08:54:13;0.80;;;0.80;;
70832;SDS011;58452;59.418;17.962;2023-04-07T08:56:40;1.10;;;1.00;;
70832;SDS011;58452;59.418;17.962;2023-04-07T08:59:07;1.73;;;0.60;;
70832;SDS011;58452;59.418;17.962;2023-04-07T09:01:34;2.08;;;0.90;;
70832;SDS011;58452;59.418;17.962;2023-04-07T09:04:03;0.90;;;0.90;;
70832;SDS011;58452;59.418;17.962;2023-04-07T09:06:31;0.60;;;0.60;;
70832;SDS011;58452;59.418;17.962;2023-04-07T09:08:58;0.85;;;0.85;;
70832;SDS011;58452;59.418;17.962;2023-04-07T09:11:27;0.90;;;0.90;;
70832;SDS011;58452;59.418;17.962;2023-04-07T09:13:54;0.70;;;0.68;;
70832;SDS011;58452;59.418;17.962;2023-04-07T09:16:21;0.63;;;0.50;;
70832;SDS011;58452;59.418;17.962;2023-04-07T09:18:50;0.90;;;0.70;;
70832;SDS011;58452;59.418;17.962;2023-04-07T09:21:17;1.25;;;1.15;;
70832;SDS011;58452;59.418;17.962;2023-04-07T09:23:42;0.70;;;0.70;;
70832;SDS011;58452;59.418;17.962;2023-04-07T09:28:43;0.70;;;0.70;;
70832;SDS011;58452;59.418;17.962;2023-04-07T09:31:10;0.85;;;0.85;;
70832;SDS011;58452;59.418;17.962;2023-04-07T09:33:36;0.70;;;0.70;;
70832;SDS011;58452;59.418;17.962;2023-04-07T09:36:02;1.27;;;1.17;;
70832;SDS011;58452;59.418;17.962;2023-04-07T09:38:32;0.80;;;0.80;;
70832;SDS011;58452;59.418;17.962;2023-04-07T09:41:08;1.00;;;0.80;;
70832;SDS011;58452;59.418;17.962;2023-04-07T09:43:39;0.60;;;0.60;;
70832;SDS011;58452;59.418;17.962;2023-04-07T09:46:10;0.63;;;0.55;;
70832;SDS011;58452;59.418;17.962;2023-04-07T09:48:37;0.50;;;0.47;;
70832;SDS011;58452;59.418;17.962;2023-04-07T09:51:16;0.60;;;0.60;;
70832;SDS011;58452;59.418;17.962;2023-04-07T09:53:49;0.88;;;0.88;;
70832;SDS011;58452;59.418;17.962;2023-04-07T09:56:18;0.95;;;0.70;;
70832;SDS011;58452;59.418;17.962;2023-04-07T09:58:48;0.65;;;0.60;;
70832;SDS011;58452;59.418;17.962;2023-04-07T10:01:15;1.23;;;0.50;;
70832;SDS011;58452;59.418;17.962;2023-04-07T10:03:42;0.55;;;0.52;;
70832;SDS011;58452;59.418;17.962;2023-04-07T10:06:08;1.15;;;0.70;;
70832;SDS011;58452;59.418;17.962;2023-04-07T10:08:36;2.08;;;0.60;;
70832;SDS011;58452;59.418;17.962;2023-04-07T10:11:04;0.50;;;0.50;;
70832;SDS011;58452;59.418;17.962;2023-04-07T10:13:31;0.50;;;0.43;;
70832;SDS011;58452;59.418;17.962;2023-04-07T10:15:58;0.80;;;0.80;;
70832;SDS011;58452;59.418;17.962;2023-04-07T10:18:27;0.70;;;0.45;;
70832;SDS011;58452;59.418;17.962;2023-04-07T10:20:56;0.68;;;0.55;;
70832;SDS011;58452;59.418;17.962;2023-04-07T10:23:25;0.68;;;0.47;;
70832;SDS011;58452;59.418;17.962;2023-04-07T10:25:56;0.93;;;0.55;;
70832;SDS011;58452;59.418;17.962;2023-04-07T10:28:24;0.88;;;0.70;;
70832;SDS011;58452;59.418;17.962;2023-04-07T10:30:52;0.90;;;0.85;;
70832;SDS011;58452;59.418;17.962;2023-04-07T10:33:41;1.33;;;0.90;;
70832;SDS011;58452;59.418;17.962;2023-04-07T10:36:20;0.68;;;0.65;;
70832;SDS011;58452;59.418;17.962;2023-04-07T10:39:17;1.30;;;0.80;;
70832;SDS011;58452;59.418;17.962;2023-04-07T10:44:04;1.00;;;0.70;;
70832;SDS011;58452;59.418;17.962;2023-04-07T10:49:16;1.38;;;1.10;;
70832;SDS011;58452;59.418;17.962;2023-04-07T10:51:42;1.15;;;0.90;;
70832;SDS011;58452;59.418;17.962;2023-04-07T10:59:28;2.85;;;1.30;;
70832;SDS011;58452;59.418;17.962;2023-04-07T11:04:39;1.40;;;1.30;;
70832;SDS011;58452;59.418;17.962;2023-04-07T11:07:09;1.33;;;1.05;;
70832;SDS011;58452;59.418;17.962;2023-04-07T11:09:35;0.80;;;0.80;;
70832;SDS011;58452;59.418;17.962;2023-04-07T11:12:01;1.17;;;1.08;;
70832;SDS011;58452;59.418;17.962;2023-04-07T11:14:31;1.80;;;1.38;;
70832;SDS011;58452;59.418;17.962;2023-04-07T11:16:58;0.88;;;0.80;;
70832;SDS011;58452;59.418;17.962;2023-04-07T11:19:27;2.78;;;1.15;;
70832;SDS011;58452;59.418;17.962;2023-04-07T11:24:38;1.95;;;1.10;;
70832;SDS011;58452;59.418;17.962;2023-04-07T11:27:04;1.95;;;1.30;;
70832;SDS011;58452;59.418;17.962;2023-04-07T11:29:30;1.63;;;1.50;;
70832;SDS011;58452;59.418;17.962;2023-04-07T11:31:57;2.97;;;1.33;;
70832;SDS011;58452;59.418;17.962;2023-04-07T11:34:33;1.20;;;1.10;;
70832;SDS011;58452;59.418;17.962;2023-04-07T11:37:19;1.63;;;1.48;;
70832;SDS011;58452;59.418;17.962;2023-04-07T11:39:52;2.65;;;1.65;;
70832;SDS011;58452;59.418;17.962;2023-04-07T11:45:17;1.92;;;1.30;;
70832;SDS011;58452;59.418;17.962;2023-04-07T11:47:44;1.70;;;1.50;;
70832;SDS011;58452;59.418;17.962;2023-04-07T11:50:10;2.08;;;1.40;;
70832;SDS011;58452;59.418;17.962;2023-04-07T11:55:15;1.80;;;1.63;;
70832;SDS011;58452;59.418;17.962;2023-04-07T11:57:42;2.40;;;1.67;;
70832;SDS011;58452;59.418;17.962;2023-04-07T12:00:08;2.10;;;1.42;;
70832;SDS011;58452;59.418;17.962;2023-04-07T12:02:35;2.58;;;1.73;;
70832;SDS011;58452;59.418;17.962;2023-04-07T12:05:01;1.50;;;1.35;;
70832;SDS011;58452;59.418;17.962;2023-04-07T12:07:27;2.10;;;1.90;;
70832;SDS011;58452;59.418;17.962;2023-04-07T12:09:53;1.52;;;1.30;;
70832;SDS011;58452;59.418;17.962;2023-04-07T12:12:25;2.30;;;1.83;;
70832;SDS011;58452;59.418;17.962;2023-04-07T12:14:52;2.25;;;1.50;;
70832;SDS011;58452;59.418;17.962;2023-04-07T12:17:22;2.20;;;1.55;;
70832;SDS011;58452;59.418;17.962;2023-04-07T12:19:48;1.83;;;1.33;;
70832;SDS011;58452;59.418;17.962;2023-04-07T12:22:14;2.55;;;1.77;;
70832;SDS011;58452;59.418;17.962;2023-04-07T12:24:39;2.97;;;1.48;;
70832;SDS011;58452;59.418;17.962;2023-04-07T12:27:05;1.80;;;1.58;;
70832;SDS011;58452;59.418;17.962;2023-04-07T12:29:30;2.38;;;1.77;;
70832;SDS011;58452;59.418;17.962;2023-04-07T12:31:56;1.92;;;1.40;;
70832;SDS011;58452;59.418;17.962;2023-04-07T12:34:21;2.42;;;1.40;;
70832;SDS011;58452;59.418;17.962;2023-04-07T12:36:47;2.72;;;1.60;;
70832;SDS011;58452;59.418;17.962;2023-04-07T12:39:12;3.08;;;1.55;;
70832;SDS011;58452;59.418;17.962;2023-04-07T12:41:38;1.60;;;1.30;;
70832;SDS011;58452;59.418;17.962;2023-04-07T12:44:04;1.98;;;1.25;;
70832;SDS011;58452;59.418;17.962;2023-04-07T12:46:30;1.88;;;1.63;;
70832;SDS011;58452;59.418;17.962;2023-04-07T12:48:55;2.08;;;1.48;;
70832;SDS011;58452;59.418;17.962;2023-04-07T12:51:21;1.95;;;1.45;;
70832;SDS011;58452;59.418;17.962;2023-04-07T12:53:46;2.45;;;1.70;;
70832;SDS011;58452;59.418;17.962;2023-04-07T12:56:12;2.67;;;1.45;;
70832;SDS011;58452;59.418;17.962;2023-04-07T12:58:38;2.28;;;1.58;;
70832;SDS011;58452;59.418;17.962;2023-04-07T13:01:04;1.90;;;1.48;;
70832;SDS011;58452;59.418;17.962;2023-04-07T13:03:30;2.38;;;1.77;;
70832;SDS011;58452;59.418;17.962;2023-04-07T13:05:55;2.88;;;1.42;;
70832;SDS011;58452;59.418;17.962;2023-04-07T13:08:25;1.60;;;1.50;;
70832;SDS011;58452;59.418;17.962;2023-04-07T13:10:51;5.05;;;2.22;;
70832;SDS011;58452;59.418;17.962;2023-04-07T13:13:16;2.15;;;1.65;;
70832;SDS011;58452;59.418;17.962;2023-04-07T13:15:42;2.13;;;1.55;;
70832;SDS011;58452;59.418;17.962;2023-04-07T13:18:07;5.65;;;1.50;;
70832;SDS011;58452;59.418;17.962;2023-04-07T13:20:33;2.00;;;1.63;;
70832;SDS011;58452;59.418;17.962;2023-04-07T13:22:58;2.47;;;1.63;;
70832;SDS011;58452;59.418;17.962;2023-04-07T13:25:24;1.67;;;1.38;;
70832;SDS011;58452;59.418;17.962;2023-04-07T13:27:49;1.58;;;1.27;;
70832;SDS011;58452;59.418;17.962;2023-04-07T13:30:15;2.92;;;1.35;;
70832;SDS011;58452;59.418;17.962;2023-04-07T13:32:40;2.72;;;1.85;;
70832;SDS011;58452;59.418;17.962;2023-04-07T13:35:06;1.58;;;1.27;;
70832;SDS011;58452;59.418;17.962;2023-04-07T13:37:31;1.45;;;1.35;;
70832;SDS011;58452;59.418;17.962;2023-04-07T13:39:57;1.98;;;1.20;;
70832;SDS011;58452;59.418;17.962;2023-04-07T13:42:22;1.23;;;1.13;;
70832;SDS011;58452;59.418;17.962;2023-04-07T13:44:48;2.08;;;1.50;;
70832;SDS011;58452;59.418;17.962;2023-04-07T13:47:15;3.85;;;1.58;;
70832;SDS011;58452;59.418;17.962;2023-04-07T13:49:44;1.60;;;1.30;;
70832;SDS011;58452;59.418;17.962;2023-04-07T13:52:11;2.28;;;1.33;;
70832;SDS011;58452;59.418;17.962;2023-04-07T13:54:37;1.83;;;1.30;;
70832;SDS011;58452;59.418;17.962;2023-04-07T13:57:03;2.35;;;1.92;;
70832;SDS011;58452;59.418;17.962;2023-04-07T13:59:29;1.73;;;1.50;;
70832;SDS011;58452;59.418;17.962;2023-04-07T14:01:55;2.22;;;1.30;;
70832;SDS011;58452;59.418;17.962;2023-04-07T14:04:20;3.65;;;1.27;;
70832;SDS011;58452;59.418;17.962;2023-04-07T14:06:46;2.05;;;1.60;;
70832;SDS011;58452;59.418;17.962;2023-04-07T14:09:12;1.92;;;1.75;;
70832;SDS011;58452;59.418;17.962;2023-04-07T14:11:37;5.07;;;1.63;;
70832;SDS011;58452;59.418;17.962;2023-04-07T14:14:03;1.48;;;1.17;;
70832;SDS011;58452;59.418;17.962;2023-04-07T14:16:28;1.95;;;1.70;;
70832;SDS011;58452;59.418;17.962;2023-04-07T14:18:54;2.63;;;2.05;;
70832;SDS011;58452;59.418;17.962;2023-04-07T14:21:20;8.77;;;2.20;;
70832;SDS011;58452;59.418;17.962;2023-04-07T14:23:45;4.35;;;1.77;;
70832;SDS011;58452;59.418;17.962;2023-04-07T14:26:11;3.47;;;1.50;;
70832;SDS011;58452;59.418;17.962;2023-04-07T14:28:37;4.35;;;2.00;;
70832;SDS011;58452;59.418;17.962;2023-04-07T14:31:03;2.55;;;1.80;;
70832;SDS011;58452;59.418;17.962;2023-04-07T14:33:28;3.67;;;2.20;;
70832;SDS011;58452;59.418;17.962;2023-04-07T14:35:54;4.47;;;2.00;;
70832;SDS011;58452;59.418;17.962;2023-04-07T14:38:20;2.95;;;2.10;;
70832;SDS011;58452;59.418;17.962;2023-04-07T14:40:52;3.35;;;2.15;;
70832;SDS011;58452;59.418;17.962;2023-04-07T14:43:18;3.83;;;1.80;;
70832;SDS011;58452;59.418;17.962;2023-04-07T14:45:43;1.83;;;1.38;;
70832;SDS011;58452;59.418;17.962;2023-04-07T14:48:09;2.72;;;1.98;;
70832;SDS011;58452;59.418;17.962;2023-04-07T14:50:35;1.80;;;1.40;;
70832;SDS011;58452;59.418;17.962;2023-04-07T14:53:01;2.42;;;1.55;;
70832;SDS011;58452;59.418;17.962;2023-04-07T14:55:27;2.38;;;1.45;;
70832;SDS011;58452;59.418;17.962;2023-04-07T14:57:53;1.45;;;1.35;;
70832;SDS011;58452;59.418;17.962;2023-04-07T15:00:18;2.15;;;1.48;;
70832;SDS011;58452;59.418;17.962;2023-04-07T15:02:43;3.42;;;3.13;;
70832;SDS011;58452;59.418;17.962;2023-04-07T15:05:09;4.47;;;3.53;;